Latest Weather Observations for Brewon

IDN60801

Issued at 2:52 pm EDT Sunday 17 February 2019 (issued every 10 minutes, with the page automatically refreshed every 10 minutes)

About weather observations | Map of weather stations | Latest weather observations for NSW | Other Formats
Station Details ID: 051162 Name: BREWON AWS Lat: -30.24 Lon: 147.53 Height: 130.0 m
Data from the previous 72 hours. | See also: Recent months at Brewon
Date/Time
EDT
Temp
°C
App
Temp
°C
Dew
Point
°C
Rel
Hum
%
Delta-T
°C
Wind Press
QNH
hPa
Press
MSL
hPa
Rain since
9am
mm
Dir  Spd
km/h
Gust
km/h
Spd
kts
Gust
kts
17/02:30pm 36.9 - 7.8 17 16.5 - - - - - - - 0.0
17/02:00pm 36.2 - 8.1 18 16.0 - - - - - - - 0.0
17/01:30pm 35.1 - 9.5 21 14.8 - - - - - - - 0.0
17/01:00pm 34.7 - 10.5 23 14.2 - - - - - - - 0.0
17/12:30pm 33.4 - 10.7 25 13.2 - - - - - - - 0.0
17/12:00pm 32.9 - 11.4 27 12.7 - - - - - - - 0.0
17/11:30am 32.1 - 12.3 29 11.8 - - - - - - - 0.0
17/11:00am 31.5 - 12.3 31 11.4 - - - - - - - 0.0
17/10:30am 31.0 - 12.4 32 11.0 - - - - - - - 0.0
17/10:00am 29.7 - 13.0 35 9.9 - - - - - - - 0.0
17/09:30am 28.1 - 12.5 38 9.2 - - - - - - - 0.0
17/09:00am 27.1 - 12.3 39 8.6 - - - - - - - 0.0
17/08:30am 25.8 - 10.8 39 8.5 - - - - - - - 0.0
17/08:00am 24.5 - 8.9 37 8.5 - - - - - - - 0.0
17/07:30am 21.3 - 5.6 36 7.9 - - - - - - - 0.0
17/07:00am 20.5 - 4.9 36 7.7 - - - - - - - 0.0
17/06:30am 21.1 - 5.1 35 7.9 - - - - - - - 0.0
17/06:00am 22.2 - 5.6 34 8.4 - - - - - - - 0.0
17/05:30am 22.2 - 5.2 33 8.5 - - - - - - - 0.0
17/05:00am 21.4 - 4.0 32 8.5 - - - - - - - 0.0
17/04:30am 21.6 - 3.8 31 8.6 - - - - - - - 0.0
17/04:00am 22.4 - 4.5 31 8.8 - - - - - - - 0.0
17/03:30am 21.1 - 3.3 31 8.5 - - - - - - - 0.0
17/03:00am 21.4 - 3.6 31 8.6 - - - - - - - 0.0
17/02:30am 22.3 - 4.4 31 8.8 - - - - - - - 0.0
17/02:00am 23.3 - 4.3 29 9.4 - - - - - - - 0.0
17/01:30am 23.4 - 3.9 28 9.6 - - - - - - - 0.0
17/01:00am 25.3 - 4.4 26 10.5 - - - - - - - 0.0
17/12:30am 25.6 - 4.7 26 10.6 - - - - - - - 0.0
17/12:00am 25.6 - 5.2 27 10.4 - - - - - - - 0.0
 
Date/Time
EDT
Temp
°C
App
Temp
°C
Dew
Point
°C
Rel
Hum
%
Delta-T
°C
Wind Press
QNH
hPa
Press
MSL
hPa
Rain since
9am
mm
Dir  Spd
km/h
Gust
km/h
Spd
kts
Gust
kts
16/11:30pm 27.0 - 5.9 26 11.0 - - - - - - - 0.0
16/11:00pm 27.9 - 6.1 25 11.5 - - - - - - - 0.0
16/10:30pm 27.8 - 6.6 26 11.3 - - - - - - - 0.0
16/10:00pm 28.1 - 6.8 26 11.4 - - - - - - - 0.0
16/09:30pm 28.4 - 5.3 23 12.0 - - - - - - - 0.0
16/09:00pm 30.6 - 6.5 22 13.0 - - - - - - - 0.0
16/08:30pm 31.7 - 6.7 21 13.6 - - - - - - - 0.0
16/08:00pm 32.8 - 6.9 20 14.2 - - - - - - - 0.0
16/07:30pm 33.9 - 7.0 19 14.8 - - - - - - - 0.0
16/07:00pm 34.3 - 7.4 19 15.0 - - - - - - - 0.0
16/06:30pm 34.5 - 7.5 19 15.1 - - - - - - - 0.0
16/06:00pm 34.7 - 7.7 19 15.1 - - - - - - - 0.0
16/05:30pm 34.5 - 7.5 19 15.1 - - - - - - - 0.0
16/05:00pm 35.9 - 7.0 17 16.1 - - - - - - - 0.0
16/04:30pm 35.6 - 8.4 19 15.5 - - - - - - - 0.0
16/04:00pm 35.0 - 8.7 20 15.0 - - - - - - - 0.0
16/03:30pm 34.8 - 9.3 21 14.7 - - - - - - - 0.0
16/03:00pm 34.3 - 9.5 22 14.3 - - - - - - - 0.0
16/02:30pm 34.1 - 10.7 24 13.7 - - - - - - - 0.0
16/02:00pm 33.1 - 11.0 26 12.9 - - - - - - - 0.0
16/01:30pm 32.1 - 10.8 27 12.4 - - - - - - - 0.0
16/01:00pm 30.8 - 10.7 29 11.6 - - - - - - - 0.0
16/12:30pm 30.5 - 11.5 31 11.1 - - - - - - - 0.0
16/12:00pm 29.6 - 11.2 32 10.6 - - - - - - - 0.0
16/11:30am 28.4 - 10.6 33 10.1 - - - - - - - 0.0
16/11:00am 28.2 - 9.9 32 10.3 - - - - - - - 0.0
16/10:30am 27.0 - 10.2 35 9.4 - - - - - - - 0.0
16/10:00am 26.2 - 10.0 36 9.0 - - - - - - - 0.0
16/09:30am 25.5 - 9.7 37 8.7 - - - - - - - 0.0
16/09:00am 25.0 - 10.1 39 8.3 - - - - - - - 0.0
16/08:30am 24.0 - 10.3 42 7.6 - - - - - - - 0.0
16/08:00am 23.5 - 10.2 43 7.3 - - - - - - - 0.0
16/07:30am 22.7 - 9.8 44 7.0 - - - - - - - 0.0
16/07:00am 22.6 - 9.7 44 7.0 - - - - - - - 0.0
16/06:30am 23.2 - 9.6 42 7.4 - - - - - - - 0.0
16/06:00am 23.9 - 9.5 40 7.9 - - - - - - - 0.0
16/05:30am 24.0 - 9.2 39 8.1 - - - - - - - 0.0
16/05:00am 24.2 - 8.6 37 8.4 - - - - - - - 0.0
16/04:30am 24.5 - 8.0 35 8.8 - - - - - - - 0.0
16/04:00am 24.8 - 7.9 34 9.0 - - - - - - - 0.0
16/03:30am 25.8 - 8.8 34 9.3 - - - - - - - 0.0
16/03:00am 26.3 - 8.8 33 9.6 - - - - - - - 0.0
16/02:30am 26.6 - 7.1 29 10.4 - - - - - - - 0.0
16/02:00am 26.8 - 5.7 26 11.0 - - - - - - - 0.0
16/01:30am 27.3 - 5.6 25 11.3 - - - - - - - 0.0
16/01:00am 27.5 - 5.1 24 11.6 - - - - - - - 0.0
16/12:30am 27.8 - 6.0 25 11.5 - - - - - - - 0.0
16/12:00am 27.0 - 7.5 29 10.5 - - - - - - - 0.0
 
Date/Time
EDT
Temp
°C
App
Temp
°C
Dew
Point
°C
Rel
Hum
%
Delta-T
°C
Wind Press
QNH
hPa
Press
MSL
hPa
Rain since
9am
mm
Dir  Spd
km/h
Gust
km/h
Spd
kts
Gust
kts
15/11:30pm 27.1 - 8.0 30 10.3 - - - - - - - 0.0
15/11:00pm 28.0 - 7.8 28 11.0 - - - - - - - 0.0
15/10:30pm 29.3 - 8.4 27 11.5 - - - - - - - 0.0
15/10:00pm 29.5 - 8.5 27 11.6 - - - - - - - 0.0
15/09:30pm 30.4 - 8.7 26 12.1 - - - - - - - 0.0
15/09:00pm 30.8 - 9.1 26 12.2 - - - - - - - 0.0
15/08:30pm 32.0 - 9.5 25 12.8 - - - - - - - 0.0
15/08:00pm 32.9 - 10.3 25 13.1 - - - - - - - 0.0
15/07:30pm 33.7 - 9.7 23 13.8 - - - - - - - 0.0
15/07:00pm 34.2 - 10.1 23 14.0 - - - - - - - 0.0
15/06:30pm 34.4 - 10.3 23 14.0 - - - - - - - 0.0
15/06:00pm 34.5 - 10.4 23 14.1 - - - - - - - 0.0
15/05:30pm 33.9 - 11.1 25 13.4 - - - - - - - 0.0
15/05:00pm 34.8 - 11.2 24 14.0 - - - - - - - 0.0
15/04:30pm 33.7 - 11.5 26 13.1 - - - - - - - 0.0
15/04:00pm 34.9 - 12.5 25 13.5 - - - - - - - 0.0
15/03:30pm 34.5 - 12.8 27 13.1 - - - - - - - 0.0
15/03:00pm 33.3 - 12.9 29 12.3 - - - - - - - 0.0
15/02:30pm 32.9 - 13.5 30 11.8 - - - - - - - 0.0
15/02:00pm 32.9 - 14.0 32 11.6 - - - - - - - 0.0
15/01:30pm 33.3 - 14.4 32 11.7 - - - - - - - 0.0
15/01:00pm 31.4 - 14.1 35 10.5 - - - - - - - 0.0
15/12:30pm 30.9 - 14.1 36 10.2 - - - - - - - 0.0
15/12:00pm 30.6 - 13.8 35 10.2 - - - - - - - 0.0
15/11:30am 29.6 - 13.4 37 9.7 - - - - - - - 0.0
15/11:00am 29.3 - 13.5 38 9.5 - - - - - - - 0.0
15/10:30am 28.5 - 14.0 41 8.7 - - - - - - - 0.0
15/10:00am 27.0 - 13.7 44 7.9 - - - - - - - 0.0
15/09:30am 26.3 - 13.8 46 7.4 - - - - - - - 0.0
15/09:00am 25.6 - 13.5 47 7.1 - - - - - - - 0.0
15/08:30am 24.9 - 13.5 49 6.7 - - - - - - - 0.0
15/08:00am 24.1 - 13.3 51 6.3 - - - - - - - 0.0
15/07:30am 23.6 - 13.2 52 6.1 - - - - - - - 0.0
15/07:00am 23.6 - 13.2 52 6.1 - - - - - - - 0.0
15/06:30am 24.0 - 12.9 50 6.4 - - - - - - - 0.0
15/06:00am 24.3 - 12.9 49 6.6 - - - - - - - 0.0
15/05:30am 24.6 - 12.9 48 6.8 - - - - - - - 0.0
15/05:00am 24.9 - 12.8 47 7.0 - - - - - - - 0.0
15/04:30am 25.3 - 12.5 45 7.4 - - - - - - - 0.0
15/04:00am 25.8 - 12.6 44 7.7 - - - - - - - 0.0
15/03:30am 25.9 - 12.0 42 8.0 - - - - - - - 0.0
15/03:00am 26.2 - 11.9 41 8.2 - - - - - - - 0.0
15/02:30am 26.4 - 10.9 38 8.8 - - - - - - - 0.0
15/02:00am 26.8 - 10.5 36 9.2 - - - - - - - 0.0
15/01:30am 27.3 - 10.1 34 9.7 - - - - - - - 0.0
15/01:00am 27.8 - 10.1 33 10.0 - - - - - - - 0.0
15/12:30am 28.4 - 10.6 33 10.1 - - - - - - - 0.0
15/12:00am 28.3 - 10.5 33 10.1 - - - - - - - 0.0
 
Date/Time
EDT
Temp
°C
App
Temp
°C
Dew
Point
°C
Rel
Hum
%
Delta-T
°C
Wind Press
QNH
hPa
Press
MSL
hPa
Rain since
9am
mm
Dir  Spd
km/h
Gust
km/h
Spd
kts
Gust
kts
14/11:30pm 28.5 - 10.2 32 10.4 - - - - - - - 0.0
14/11:00pm 29.2 - 10.3 31 10.8 - - - - - - - 0.0
14/10:30pm 29.0 - 9.7 30 10.9 - - - - - - - 0.0
14/10:00pm 29.6 - 10.2 30 11.0 - - - - - - - 0.0
14/09:30pm 30.3 - 10.3 29 11.4 - - - - - - - 0.0
14/09:00pm 30.9 - 10.3 28 11.8 - - - - - - - 0.0
14/08:30pm 31.3 - 10.1 27 12.1 - - - - - - - 0.0
14/08:00pm 32.0 - 10.7 27 12.4 - - - - - - - 0.0
14/07:30pm 32.8 - 10.2 25 13.0 - - - - - - - 0.0
14/07:00pm 33.1 - 10.4 25 13.2 - - - - - - - 0.0
14/06:30pm 33.6 - 9.6 23 13.8 - - - - - - - 0.0
14/06:00pm 33.6 - 9.0 22 14.0 - - - - - - - 0.0
14/05:30pm 34.0 - 8.6 21 14.4 - - - - - - - 0.0
14/05:00pm 33.9 - 7.0 19 14.8 - - - - - - - 0.0
14/04:30pm 34.5 - 6.7 18 15.3 - - - - - - - 0.0
14/04:00pm 33.4 - 9.4 23 13.7 - - - - - - - 0.0
14/03:30pm 32.9 - 9.0 23 13.5 - - - - - - - 0.0
14/03:00pm 32.8 - 8.3 22 13.7 - - - - - - - 0.0

Other Formats:

Comma delimited format used in spreadsheet applications
http://www.bom.gov.au/fwo/IDN60801/IDN60801.94793.axf

JavaScript Object Notation format (JSON) in row-major order
http://www.bom.gov.au/fwo/IDN60801/IDN60801.94793.json